Terminal Aerodrome Forecast
Issued by NWS

Home | Current Version | Previous Version | Text Only | Print | Product List | Glossary On
Versions: 1 2 3 4 5 6 7 8 9 10 11 12 13 14
003
FTUS44 KCRP 191732
TAFALI
TAF
KALI 191732Z 1918/2018 12009KT P6SM SCT030 BKN050
     FM200300 09007KT P6SM BKN025
     FM200800 10004KT 5SM BR BKN015
      TEMPO 2010/2014 2SM BR
     FM201500 17005KT P6SM BKN025=

USA.gov is the U.S. government's official web portal to all federal, state and local government web resources and services.